sensor_id;sensor_type;location;lat;lon;timestamp;pressure;altitude;pressure_sealevel;temperature;humidity
80128;BME280;69440;52.118;5.408;2023-07-29T00:01:07;100868.09;;;18.02;86.91
80128;BME280;69440;52.118;5.408;2023-07-29T00:03:33;100870.09;;;17.99;86.67
80128;BME280;69440;52.118;5.408;2023-07-29T00:06:00;100862.78;;;18.00;86.76
80128;BME280;69440;52.118;5.408;2023-07-29T00:08:27;100862.78;;;18.00;86.74
80128;BME280;69440;52.118;5.408;2023-07-29T00:10:53;100850.88;;;17.91;86.62
80128;BME280;69440;52.118;5.408;2023-07-29T00:13:20;100850.00;;;17.81;86.90
80128;BME280;69440;52.118;5.408;2023-07-29T00:15:48;100844.97;;;17.77;87.30
80128;BME280;69440;52.118;5.408;2023-07-29T00:18:14;100841.63;;;17.73;87.07
80128;BME280;69440;52.118;5.408;2023-07-29T00:20:41;100846.72;;;17.66;87.06
80128;BME280;69440;52.118;5.408;2023-07-29T00:23:07;100842.28;;;17.65;87.27
80128;BME280;69440;52.118;5.408;2023-07-29T00:25:34;100837.28;;;17.61;87.31
80128;BME280;69440;52.118;5.408;2023-07-29T00:28:00;100841.84;;;17.60;87.45
80128;BME280;69440;52.118;5.408;2023-07-29T00:30:27;100828.38;;;17.59;87.66
80128;BME280;69440;52.118;5.408;2023-07-29T00:32:53;100822.09;;;17.58;87.86
80128;BME280;69440;52.118;5.408;2023-07-29T00:35:20;100810.94;;;17.61;88.39
80128;BME280;69440;52.118;5.408;2023-07-29T00:37:46;100809.22;;;17.60;88.17
80128;BME280;69440;52.118;5.408;2023-07-29T00:40:15;100812.94;;;17.59;88.21
80128;BME280;69440;52.118;5.408;2023-07-29T00:42:45;100844.13;;;17.55;88.35
80128;BME280;69440;52.118;5.408;2023-07-29T00:45:12;100832.38;;;17.55;88.25
80128;BME280;69440;52.118;5.408;2023-07-29T00:47:39;100839.53;;;17.56;88.25
80128;BME280;69440;52.118;5.408;2023-07-29T00:50:07;100845.56;;;17.59;88.12
80128;BME280;69440;52.118;5.408;2023-07-29T00:52:33;100846.00;;;17.64;88.13
80128;BME280;69440;52.118;5.408;2023-07-29T00:55:00;100833.75;;;17.70;88.17
80128;BME280;69440;52.118;5.408;2023-07-29T00:57:28;100819.31;;;17.69;88.03
80128;BME280;69440;52.118;5.408;2023-07-29T00:59:55;100814.00;;;17.68;88.32
80128;BME280;69440;52.118;5.408;2023-07-29T01:02:22;100823.53;;;17.62;88.52
80128;BME280;69440;52.118;5.408;2023-07-29T01:05:07;100818.97;;;17.63;88.39
80128;BME280;69440;52.118;5.408;2023-07-29T01:08:06;100818.97;;;17.63;88.16
80128;BME280;69440;52.118;5.408;2023-07-29T01:10:39;100822.53;;;17.63;87.87
80128;BME280;69440;52.118;5.408;2023-07-29T01:15:57;100822.44;;;17.44;88.44
80128;BME280;69440;52.118;5.408;2023-07-29T01:18:30;100824.56;;;17.41;88.91
80128;BME280;69440;52.118;5.408;2023-07-29T01:21:03;100826.28;;;17.42;88.78
80128;BME280;69440;52.118;5.408;2023-07-29T01:23:31;100822.84;;;17.39;88.56
80128;BME280;69440;52.118;5.408;2023-07-29T01:25:58;100823.69;;;17.40;88.66
80128;BME280;69440;52.118;5.408;2023-07-29T01:28:26;100829.41;;;17.37;88.66
80128;BME280;69440;52.118;5.408;2023-07-29T01:31:10;100823.84;;;17.38;88.71
80128;BME280;69440;52.118;5.408;2023-07-29T01:34:13;100821.72;;;17.42;88.82
80128;BME280;69440;52.118;5.408;2023-07-29T01:36:45;100822.72;;;17.41;89.02
80128;BME280;69440;52.118;5.408;2023-07-29T01:39:14;100826.56;;;17.38;88.44
80128;BME280;69440;52.118;5.408;2023-07-29T01:41:43;100824.38;;;17.32;88.53
80128;BME280;69440;52.118;5.408;2023-07-29T01:44:12;100821.06;;;17.29;88.52
80128;BME280;69440;52.118;5.408;2023-07-29T01:46:39;100821.47;;;17.24;88.88
80128;BME280;69440;52.118;5.408;2023-07-29T01:49:06;100815.19;;;17.24;89.02
80128;BME280;69440;52.118;5.408;2023-07-29T01:51:32;100816.06;;;17.24;89.15
80128;BME280;69440;52.118;5.408;2023-07-29T01:53:59;100811.78;;;17.31;89.83
80128;BME280;69440;52.118;5.408;2023-07-29T01:56:26;100808.34;;;17.29;89.94
80128;BME280;69440;52.118;5.408;2023-07-29T01:58:52;100814.66;;;17.30;89.68
80128;BME280;69440;52.118;5.408;2023-07-29T02:01:19;100802.78;;;17.31;89.91
80128;BME280;69440;52.118;5.408;2023-07-29T02:03:45;100806.94;;;17.35;90.26
80128;BME280;69440;52.118;5.408;2023-07-29T02:06:12;100802.97;;;17.39;89.47
80128;BME280;69440;52.118;5.408;2023-07-29T02:08:39;100809.97;;;17.42;89.83
80128;BME280;69440;52.118;5.408;2023-07-29T02:11:07;100797.25;;;17.42;89.97
80128;BME280;69440;52.118;5.408;2023-07-29T02:13:33;100799.72;;;17.45;89.75
80128;BME280;69440;52.118;5.408;2023-07-29T02:16:00;100797.75;;;17.47;89.83
80128;BME280;69440;52.118;5.408;2023-07-29T02:18:26;100792.69;;;17.43;90.08
80128;BME280;69440;52.118;5.408;2023-07-29T02:20:53;100786.25;;;17.44;90.01
80128;BME280;69440;52.118;5.408;2023-07-29T02:23:19;100784.81;;;17.39;90.14
80128;BME280;69440;52.118;5.408;2023-07-29T02:25:46;100785.53;;;17.42;90.20
80128;BME280;69440;52.118;5.408;2023-07-29T02:28:12;100785.66;;;17.40;90.13
80128;BME280;69440;52.118;5.408;2023-07-29T02:30:41;100784.22;;;17.36;90.50
80128;BME280;69440;52.118;5.408;2023-07-29T02:33:10;100794.22;;;17.35;90.65
80128;BME280;69440;52.118;5.408;2023-07-29T02:35:37;100787.94;;;17.35;90.90
80128;BME280;69440;52.118;5.408;2023-07-29T02:38:03;100797.94;;;17.34;90.67
80128;BME280;69440;52.118;5.408;2023-07-29T02:40:30;100790.91;;;17.32;90.80
80128;BME280;69440;52.118;5.408;2023-07-29T02:42:57;100773.63;;;17.33;90.85
80128;BME280;69440;52.118;5.408;2023-07-29T02:45:23;100790.06;;;17.31;91.08
80128;BME280;69440;52.118;5.408;2023-07-29T02:47:49;100786.63;;;17.29;90.88
80128;BME280;69440;52.118;5.408;2023-07-29T02:50:16;100782.19;;;17.28;91.43
80128;BME280;69440;52.118;5.408;2023-07-29T02:52:42;100782.19;;;17.28;91.04
80128;BME280;69440;52.118;5.408;2023-07-29T02:55:09;100784.19;;;17.26;91.27
80128;BME280;69440;52.118;5.408;2023-07-29T02:57:35;100779.75;;;17.25;91.41
80128;BME280;69440;52.118;5.408;2023-07-29T03:00:02;100773.00;;;17.20;91.41
80128;BME280;69440;52.118;5.408;2023-07-29T03:02:29;100779.94;;;17.13;91.43
80128;BME280;69440;52.118;5.408;2023-07-29T03:04:56;100782.00;;;17.20;91.89
80128;BME280;69440;52.118;5.408;2023-07-29T03:07:23;100781.28;;;17.18;91.43
80128;BME280;69440;52.118;5.408;2023-07-29T03:09:49;100775.13;;;17.16;91.58
80128;BME280;69440;52.118;5.408;2023-07-29T03:12:16;100771.41;;;17.17;91.68
80128;BME280;69440;52.118;5.408;2023-07-29T03:14:42;100762.84;;;17.22;91.59
80128;BME280;69440;52.118;5.408;2023-07-29T03:17:09;100758.41;;;17.21;91.63
80128;BME280;69440;52.118;5.408;2023-07-29T03:19:35;100764.84;;;17.20;91.37
80128;BME280;69440;52.118;5.408;2023-07-29T03:22:02;100765.72;;;17.20;91.58
80128;BME280;69440;52.118;5.408;2023-07-29T03:24:28;100764.97;;;17.18;91.45
80128;BME280;69440;52.118;5.408;2023-07-29T03:26:55;100760.69;;;17.16;91.54
80128;BME280;69440;52.118;5.408;2023-07-29T03:29:22;100771.41;;;17.17;91.21
80128;BME280;69440;52.118;5.408;2023-07-29T03:31:48;100777.84;;;17.16;91.61
80128;BME280;69440;52.118;5.408;2023-07-29T03:34:15;100770.56;;;17.17;91.31
80128;BME280;69440;52.118;5.408;2023-07-29T03:36:41;100772.13;;;17.19;91.29
80128;BME280;69440;52.118;5.408;2023-07-29T03:39:08;100767.56;;;17.20;91.49
80128;BME280;69440;52.118;5.408;2023-07-29T03:41:34;100771.13;;;17.20;91.15
80128;BME280;69440;52.118;5.408;2023-07-29T03:44:01;100762.13;;;17.20;91.21
80128;BME280;69440;52.118;5.408;2023-07-29T03:46:27;100758.41;;;17.21;91.10
80128;BME280;69440;52.118;5.408;2023-07-29T03:48:54;100771.13;;;17.20;91.31
80128;BME280;69440;52.118;5.408;2023-07-29T03:51:21;100774.13;;;17.17;91.30
80128;BME280;69440;52.118;5.408;2023-07-29T03:53:48;100776.13;;;17.15;91.57
80128;BME280;69440;52.118;5.408;2023-07-29T03:56:14;100773.78;;;17.11;91.25
80128;BME280;69440;52.118;5.408;2023-07-29T03:58:42;100786.50;;;17.10;91.45
80128;BME280;69440;52.118;5.408;2023-07-29T04:01:10;100785.50;;;17.11;91.58
80128;BME280;69440;52.118;5.408;2023-07-29T04:03:36;100780.94;;;17.12;91.15
80128;BME280;69440;52.118;5.408;2023-07-29T04:06:03;100780.34;;;17.08;91.44
80128;BME280;69440;52.118;5.408;2023-07-29T04:08:30;100775.03;;;17.06;90.66
80128;BME280;69440;52.118;5.408;2023-07-29T04:10:56;100784.78;;;17.09;90.50
80128;BME280;69440;52.118;5.408;2023-07-29T04:13:23;100782.47;;;17.04;90.02
80128;BME280;69440;52.118;5.408;2023-07-29T04:15:50;100783.31;;;17.05;90.01
80128;BME280;69440;52.118;5.408;2023-07-29T04:18:16;100785.78;;;17.08;89.47
80128;BME280;69440;52.118;5.408;2023-07-29T04:20:43;100771.47;;;17.06;88.97
80128;BME280;69440;52.118;5.408;2023-07-29T04:23:09;100764.44;;;17.03;88.64
80128;BME280;69440;52.118;5.408;2023-07-29T04:25:36;100765.31;;;17.04;88.88
80128;BME280;69440;52.118;5.408;2023-07-29T04:28:03;100772.00;;;17.00;88.69
80128;BME280;69440;52.118;5.408;2023-07-29T04:30:31;100768.28;;;17.01;88.24
80128;BME280;69440;52.118;5.408;2023-07-29T04:32:57;100771.00;;;17.01;88.27
80128;BME280;69440;52.118;5.408;2023-07-29T04:35:24;100771.75;;;17.03;88.16
80128;BME280;69440;52.118;5.408;2023-07-29T04:37:51;100781.00;;;17.00;88.06
80128;BME280;69440;52.118;5.408;2023-07-29T04:40:17;100776.84;;;16.96;88.30
80128;BME280;69440;52.118;5.408;2023-07-29T04:42:44;100776.72;;;16.98;88.39
80128;BME280;69440;52.118;5.408;2023-07-29T04:45:10;100781.28;;;16.97;87.89
80128;BME280;69440;52.118;5.408;2023-07-29T04:47:37;100784.41;;;16.93;87.80
80128;BME280;69440;52.118;5.408;2023-07-29T04:50:04;100768.97;;;16.93;87.94
80128;BME280;69440;52.118;5.408;2023-07-29T04:52:30;100773.09;;;16.88;87.91
80128;BME280;69440;52.118;5.408;2023-07-29T04:54:57;100775.81;;;16.88;88.28
80128;BME280;69440;52.118;5.408;2023-07-29T04:57:23;100786.53;;;16.89;87.63
80128;BME280;69440;52.118;5.408;2023-07-29T04:59:50;100778.97;;;16.93;88.06
80128;BME280;69440;52.118;5.408;2023-07-29T05:02:16;100774.72;;;17.00;87.46
80128;BME280;69440;52.118;5.408;2023-07-29T05:04:43;100778.56;;;16.97;87.51
80128;BME280;69440;52.118;5.408;2023-07-29T05:07:10;100788.44;;;16.98;86.90
80128;BME280;69440;52.118;5.408;2023-07-29T05:09:37;100783.59;;;17.02;87.36
80128;BME280;69440;52.118;5.408;2023-07-29T05:12:06;100788.16;;;17.01;87.30
80128;BME280;69440;52.118;5.408;2023-07-29T05:14:44;100800.16;;;16.99;87.17
80128;BME280;69440;52.118;5.408;2023-07-29T05:17:16;100801.75;;;17.01;87.48
80128;BME280;69440;52.118;5.408;2023-07-29T05:19:45;100796.03;;;17.04;87.70
80128;BME280;69440;52.118;5.408;2023-07-29T05:22:13;100793.19;;;17.06;87.40
80128;BME280;69440;52.118;5.408;2023-07-29T05:24:39;100799.34;;;17.08;87.05
80128;BME280;69440;52.118;5.408;2023-07-29T05:27:12;100798.94;;;17.13;87.26
80128;BME280;69440;52.118;5.408;2023-07-29T05:29:39;100796.22;;;17.13;87.28
80128;BME280;69440;52.118;5.408;2023-07-29T05:32:05;100792.53;;;17.14;87.15
80128;BME280;69440;52.118;5.408;2023-07-29T05:34:32;100794.13;;;17.16;87.44
80128;BME280;69440;52.118;5.408;2023-07-29T05:36:58;100793.13;;;17.17;87.10
80128;BME280;69440;52.118;5.408;2023-07-29T05:39:25;100801.88;;;17.21;87.15
80128;BME280;69440;52.118;5.408;2023-07-29T05:41:51;100811.34;;;17.26;87.10
80128;BME280;69440;52.118;5.408;2023-07-29T05:44:18;100805.50;;;17.31;87.05
80128;BME280;69440;52.118;5.408;2023-07-29T05:46:44;100816.22;;;17.32;86.50
80128;BME280;69440;52.118;5.408;2023-07-29T05:49:11;100821.41;;;17.35;87.46
80128;BME280;69440;52.118;5.408;2023-07-29T05:51:38;100811.69;;;17.43;87.30
80128;BME280;69440;52.118;5.408;2023-07-29T05:54:04;100810.47;;;17.47;87.52
80128;BME280;69440;52.118;5.408;2023-07-29T05:56:31;100807.75;;;17.47;87.03
80128;BME280;69440;52.118;5.408;2023-07-29T05:58:57;100809.59;;;17.46;86.83
80128;BME280;69440;52.118;5.408;2023-07-29T06:01:24;100812.78;;;17.51;86.57
80128;BME280;69440;52.118;5.408;2023-07-29T06:03:50;100803.06;;;17.58;87.17
80128;BME280;69440;52.118;5.408;2023-07-29T06:06:17;100814.25;;;17.65;87.48
80128;BME280;69440;52.118;5.408;2023-07-29T06:08:43;100805.94;;;17.66;87.12
80128;BME280;69440;52.118;5.408;2023-07-29T06:11:10;100804.72;;;17.71;86.70
80128;BME280;69440;52.118;5.408;2023-07-29T06:13:37;100803.19;;;17.78;86.90
80128;BME280;69440;52.118;5.408;2023-07-29T06:16:03;100801.19;;;17.80;86.80
80128;BME280;69440;52.118;5.408;2023-07-29T06:18:30;100796.78;;;17.88;86.66
80128;BME280;69440;52.118;5.408;2023-07-29T06:20:56;100799.50;;;17.98;86.12
80128;BME280;69440;52.118;5.408;2023-07-29T06:23:23;100801.53;;;18.06;86.64
80128;BME280;69440;52.118;5.408;2023-07-29T06:25:49;100799.00;;;18.14;86.05
80128;BME280;69440;52.118;5.408;2023-07-29T06:28:16;100810.59;;;18.16;85.81
80128;BME280;69440;52.118;5.408;2023-07-29T06:30:42;100802.44;;;18.16;85.78
80128;BME280;69440;52.118;5.408;2023-07-29T06:33:09;100805.44;;;18.13;85.41
80128;BME280;69440;52.118;5.408;2023-07-29T06:35:36;100808.56;;;18.08;85.46
80128;BME280;69440;52.118;5.408;2023-07-29T06:38:02;100806.28;;;18.13;85.37
80128;BME280;69440;52.118;5.408;2023-07-29T06:40:28;100808.72;;;18.16;86.29
80128;BME280;69440;52.118;5.408;2023-07-29T06:42:55;100808.31;;;18.21;85.77
80128;BME280;69440;52.118;5.408;2023-07-29T06:45:21;100810.59;;;18.25;85.10
80128;BME280;69440;52.118;5.408;2023-07-29T06:47:48;100805.00;;;18.27;85.73
80128;BME280;69440;52.118;5.408;2023-07-29T06:50:14;100809.75;;;18.25;85.26
80128;BME280;69440;52.118;5.408;2023-07-29T06:52:41;100820.78;;;18.33;85.25
80128;BME280;69440;52.118;5.408;2023-07-29T06:55:07;100816.38;;;18.51;85.31
80128;BME280;69440;52.118;5.408;2023-07-29T06:57:34;100812.38;;;18.65;84.87
80128;BME280;69440;52.118;5.408;2023-07-29T07:00:01;100815.81;;;18.67;84.66
80128;BME280;69440;52.118;5.408;2023-07-29T07:02:28;100819.84;;;18.63;85.07
80128;BME280;69440;52.118;5.408;2023-07-29T07:04:55;100812.94;;;18.59;85.02
80128;BME280;69440;52.118;5.408;2023-07-29T07:07:22;100817.81;;;18.65;85.24
80128;BME280;69440;52.118;5.408;2023-07-29T07:09:48;100819.00;;;18.72;84.93
80128;BME280;69440;52.118;5.408;2023-07-29T07:12:14;100819.84;;;18.73;84.94
80128;BME280;69440;52.118;5.408;2023-07-29T07:14:41;100823.13;;;18.67;84.15
80128;BME280;69440;52.118;5.408;2023-07-29T07:17:07;100817.69;;;18.67;84.25
80128;BME280;69440;52.118;5.408;2023-07-29T07:19:38;100818.69;;;18.66;84.39
80128;BME280;69440;52.118;5.408;2023-07-29T07:22:05;100820.56;;;18.65;84.38
80128;BME280;69440;52.118;5.408;2023-07-29T07:24:31;100821.41;;;18.66;85.33
80128;BME280;69440;52.118;5.408;2023-07-29T07:26:57;100825.28;;;18.63;84.73
80128;BME280;69440;52.118;5.408;2023-07-29T07:29:24;100829.88;;;18.63;85.05
80128;BME280;69440;52.118;5.408;2023-07-29T07:31:52;100837.34;;;18.70;84.62
80128;BME280;69440;52.118;5.408;2023-07-29T07:34:20;100836.19;;;18.73;84.65
80128;BME280;69440;52.118;5.408;2023-07-29T07:36:47;100823.88;;;18.69;84.92
80128;BME280;69440;52.118;5.408;2023-07-29T07:39:13;100833.47;;;18.73;85.02
80128;BME280;69440;52.118;5.408;2023-07-29T07:41:41;100835.19;;;18.74;85.10
80128;BME280;69440;52.118;5.408;2023-07-29T07:44:07;100829.59;;;18.75;84.64
80128;BME280;69440;52.118;5.408;2023-07-29T07:46:34;100824.56;;;18.80;84.63
80128;BME280;69440;52.118;5.408;2023-07-29T07:49:01;100829.44;;;18.86;83.66
80128;BME280;69440;52.118;5.408;2023-07-29T07:51:28;100821.25;;;18.96;84.62
80128;BME280;69440;52.118;5.408;2023-07-29T07:53:54;100830.03;;;19.00;83.56
80128;BME280;69440;52.118;5.408;2023-07-29T07:56:20;100829.88;;;19.01;83.85
80128;BME280;69440;52.118;5.408;2023-07-29T07:58:47;100829.28;;;19.07;83.55
80128;BME280;69440;52.118;5.408;2023-07-29T08:01:14;100826.97;;;19.12;83.39
80128;BME280;69440;52.118;5.408;2023-07-29T08:03:40;100832.13;;;19.15;83.22
80128;BME280;69440;52.118;5.408;2023-07-29T08:06:07;100832.72;;;19.19;83.65
80128;BME280;69440;52.118;5.408;2023-07-29T08:08:36;100835.28;;;19.20;82.93
80128;BME280;69440;52.118;5.408;2023-07-29T08:11:02;100843.25;;;19.51;83.05
80128;BME280;69440;52.118;5.408;2023-07-29T08:13:29;100834.91;;;19.72;82.25
80128;BME280;69440;52.118;5.408;2023-07-29T08:15:55;100832.00;;;19.73;81.19
80128;BME280;69440;52.118;5.408;2023-07-29T08:18:22;100831.88;;;19.75;81.47
80128;BME280;69440;52.118;5.408;2023-07-29T08:20:55;100842.06;;;19.73;80.63
80128;BME280;69440;52.118;5.408;2023-07-29T08:23:25;100836.31;;;19.76;80.84
80128;BME280;69440;52.118;5.408;2023-07-29T08:25:53;100834.81;;;19.91;80.49
80128;BME280;69440;52.118;5.408;2023-07-29T08:28:20;100836.81;;;19.89;80.59
80128;BME280;69440;52.118;5.408;2023-07-29T08:30:47;100829.09;;;19.84;79.92
80128;BME280;69440;52.118;5.408;2023-07-29T08:33:14;100846.50;;;19.74;79.57
80128;BME280;69440;52.118;5.408;2023-07-29T08:35:41;100836.34;;;19.66;79.36
80128;BME280;69440;52.118;5.408;2023-07-29T08:38:07;100840.53;;;19.61;79.83
80128;BME280;69440;52.118;5.408;2023-07-29T08:40:34;100839.94;;;19.57;80.40
80128;BME280;69440;52.118;5.408;2023-07-29T08:43:04;100838.09;;;19.58;79.89
80128;BME280;69440;52.118;5.408;2023-07-29T08:45:35;100847.72;;;19.62;80.68
80128;BME280;69440;52.118;5.408;2023-07-29T08:48:08;100834.94;;;19.62;80.70
80128;BME280;69440;52.118;5.408;2023-07-29T08:50:37;100843.53;;;19.67;80.67
80128;BME280;69440;52.118;5.408;2023-07-29T08:53:04;100845.69;;;19.64;79.67
80128;BME280;69440;52.118;5.408;2023-07-29T08:55:32;100835.78;;;19.63;79.92
80128;BME280;69440;52.118;5.408;2023-07-29T08:57:59;100838.53;;;19.63;80.11
80128;BME280;69440;52.118;5.408;2023-07-29T09:00:27;100832.38;;;19.61;78.85
80128;BME280;69440;52.118;5.408;2023-07-29T09:02:54;100833.50;;;19.58;79.93
80128;BME280;69440;52.118;5.408;2023-07-29T09:05:21;100832.91;;;19.64;80.05
80128;BME280;69440;52.118;5.408;2023-07-29T09:07:50;100846.84;;;19.61;80.08
80128;BME280;69440;52.118;5.408;2023-07-29T09:10:21;100847.88;;;19.60;80.97
80128;BME280;69440;52.118;5.408;2023-07-29T09:12:49;100847.47;;;19.82;80.09
80128;BME280;69440;52.118;5.408;2023-07-29T09:15:29;100838.84;;;20.14;78.58
80128;BME280;69440;52.118;5.408;2023-07-29T09:17:57;100834.25;;;20.15;78.46
80128;BME280;69440;52.118;5.408;2023-07-29T09:20:27;100840.31;;;20.09;78.02
80128;BME280;69440;52.118;5.408;2023-07-29T09:22:56;100836.25;;;20.13;78.77
80128;BME280;69440;52.118;5.408;2023-07-29T09:25:25;100832.19;;;20.27;78.11
80128;BME280;69440;52.118;5.408;2023-07-29T09:27:52;100843.00;;;20.46;78.54
80128;BME280;69440;52.118;5.408;2023-07-29T09:30:22;100829.81;;;20.41;76.75
80128;BME280;69440;52.118;5.408;2023-07-29T09:32:54;100837.50;;;20.28;77.82
80128;BME280;69440;52.118;5.408;2023-07-29T09:35:21;100833.66;;;20.21;77.17
80128;BME280;69440;52.118;5.408;2023-07-29T09:37:47;100845.44;;;20.22;78.08
80128;BME280;69440;52.118;5.408;2023-07-29T09:40:14;100830.63;;;20.24;77.64
80128;BME280;69440;52.118;5.408;2023-07-29T09:42:55;100831.72;;;20.31;77.37
80128;BME280;69440;52.118;5.408;2023-07-29T09:45:26;100835.53;;;20.38;77.80
80128;BME280;69440;52.118;5.408;2023-07-29T09:47:53;100830.81;;;20.40;77.94
80128;BME280;69440;52.118;5.408;2023-07-29T09:50:26;100840.91;;;20.30;77.07
80128;BME280;69440;52.118;5.408;2023-07-29T09:52:55;100835.97;;;20.16;78.44
80128;BME280;69440;52.118;5.408;2023-07-29T09:55:22;100840.94;;;20.03;79.60
80128;BME280;69440;52.118;5.408;2023-07-29T09:57:54;100851.47;;;19.88;80.86
80128;BME280;69440;52.118;5.408;2023-07-29T10:00:22;100857.31;;;19.66;81.89
80128;BME280;69440;52.118;5.408;2023-07-29T10:02:49;100857.75;;;19.51;84.11
80128;BME280;69440;52.118;5.408;2023-07-29T10:05:22;100845.44;;;19.38;85.73
80128;BME280;69440;52.118;5.408;2023-07-29T10:11:36;100854.22;;;19.12;89.13
80128;BME280;69440;52.118;5.408;2023-07-29T10:26:28;100854.22;;;19.12;90.84
80128;BME280;69440;52.118;5.408;2023-07-29T10:29:12;100862.00;;;19.07;91.76
80128;BME280;69440;52.118;5.408;2023-07-29T10:31:42;100860.84;;;19.10;91.74
80128;BME280;69440;52.118;5.408;2023-07-29T10:34:10;100860.53;;;19.22;92.75
80128;BME280;69440;52.118;5.408;2023-07-29T10:36:37;100866.69;;;19.34;92.25
80128;BME280;69440;52.118;5.408;2023-07-29T10:39:06;100866.53;;;19.36;91.32
80128;BME280;69440;52.118;5.408;2023-07-29T10:41:56;100873.28;;;19.41;92.50
80128;BME280;69440;52.118;5.408;2023-07-29T10:47:13;100864.94;;;19.43;91.53
80128;BME280;69440;52.118;5.408;2023-07-29T10:49:40;100858.38;;;19.36;92.14
80128;BME280;69440;52.118;5.408;2023-07-29T10:52:07;100854.22;;;19.32;92.59
80128;BME280;69440;52.118;5.408;2023-07-29T10:54:44;100848.75;;;19.32;92.94
80128;BME280;69440;52.118;5.408;2023-07-29T10:57:15;100852.75;;;19.28;92.93
80128;BME280;69440;52.118;5.408;2023-07-29T10:59:55;100857.66;;;19.34;91.57
80128;BME280;69440;52.118;5.408;2023-07-29T11:02:29;100857.50;;;19.35;90.16
80128;BME280;69440;52.118;5.408;2023-07-29T11:04:56;100858.94;;;19.39;90.85
80128;BME280;69440;52.118;5.408;2023-07-29T11:07:24;100862.06;;;19.44;91.10
80128;BME280;69440;52.118;5.408;2023-07-29T11:10:01;100869.09;;;19.47;90.57
80128;BME280;69440;52.118;5.408;2023-07-29T11:23:43;100876.16;;;19.30;90.95
80128;BME280;69440;52.118;5.408;2023-07-29T11:26:37;100868.69;;;19.22;90.71
80128;BME280;69440;52.118;5.408;2023-07-29T11:29:12;100873.72;;;19.17;91.00
80128;BME280;69440;52.118;5.408;2023-07-29T11:32:04;100883.50;;;19.10;90.84
80128;BME280;69440;52.118;5.408;2023-07-29T11:34:36;100870.59;;;19.12;91.08
80128;BME280;69440;52.118;5.408;2023-07-29T11:37:23;100873.47;;;19.01;91.30
80128;BME280;69440;52.118;5.408;2023-07-29T11:39:50;100873.00;;;18.96;92.17
80128;BME280;69440;52.118;5.408;2023-07-29T11:42:17;100870.88;;;18.90;92.36
80128;BME280;69440;52.118;5.408;2023-07-29T11:44:44;100871.16;;;18.87;92.39
80128;BME280;69440;52.118;5.408;2023-07-29T11:47:13;100874.19;;;18.84;92.52
80128;BME280;69440;52.118;5.408;2023-07-29T11:49:40;100872.44;;;18.83;92.59
80128;BME280;69440;52.118;5.408;2023-07-29T11:52:08;100876.59;;;18.87;92.32
80128;BME280;69440;52.118;5.408;2023-07-29T11:54:36;100870.59;;;18.93;93.07
80128;BME280;69440;52.118;5.408;2023-07-29T11:57:06;100884.50;;;18.90;93.02
80128;BME280;69440;52.118;5.408;2023-07-29T11:59:37;100878.03;;;18.91;92.92
80128;BME280;69440;52.118;5.408;2023-07-29T12:02:06;100877.78;;;19.04;93.19
80128;BME280;69440;52.118;5.408;2023-07-29T12:04:34;100876.72;;;19.24;92.15
80128;BME280;69440;52.118;5.408;2023-07-29T12:07:02;100874.84;;;19.44;91.10
80128;BME280;69440;52.118;5.408;2023-07-29T12:09:29;100867.16;;;20.13;92.88
80128;BME280;69440;52.118;5.408;2023-07-29T12:11:57;100865.25;;;20.69;89.38
80128;BME280;69440;52.118;5.408;2023-07-29T12:14:28;100855.31;;;21.21;88.66
80128;BME280;69440;52.118;5.408;2023-07-29T12:16:55;100853.09;;;21.68;87.46
80128;BME280;69440;52.118;5.408;2023-07-29T12:19:22;100852.91;;;21.96;86.23
80128;BME280;69440;52.118;5.408;2023-07-29T12:21:48;100864.16;;;22.11;83.22
80128;BME280;69440;52.118;5.408;2023-07-29T12:24:15;100857.69;;;22.20;82.68
80128;BME280;69440;52.118;5.408;2023-07-29T12:26:42;100856.81;;;21.85;80.23
80128;BME280;69440;52.118;5.408;2023-07-29T12:29:18;100851.50;;;21.84;83.10
80128;BME280;69440;52.118;5.408;2023-07-29T12:32:01;100851.88;;;21.63;82.65
80128;BME280;69440;52.118;5.408;2023-07-29T12:34:29;100854.28;;;21.66;81.05
80128;BME280;69440;52.118;5.408;2023-07-29T12:36:58;100852.22;;;21.60;80.45
80128;BME280;69440;52.118;5.408;2023-07-29T12:39:27;100856.06;;;21.75;83.23
80128;BME280;69440;52.118;5.408;2023-07-29T12:41:59;100857.63;;;21.78;81.20
80128;BME280;69440;52.118;5.408;2023-07-29T12:44:29;100849.78;;;21.57;80.43
80128;BME280;69440;52.118;5.408;2023-07-29T12:47:35;100851.63;;;21.48;82.87
80128;BME280;69440;52.118;5.408;2023-07-29T12:51:17;100858.53;;;21.34;81.64
80128;BME280;69440;52.118;5.408;2023-07-29T12:53:45;100858.19;;;21.37;82.19
80128;BME280;69440;52.118;5.408;2023-07-29T12:56:12;100854.03;;;21.51;80.72
80128;BME280;69440;52.118;5.408;2023-07-29T12:58:38;100853.22;;;21.59;80.28
80128;BME280;69440;52.118;5.408;2023-07-29T13:01:11;100853.22;;;21.59;80.78
80128;BME280;69440;52.118;5.408;2023-07-29T13:04:00;100843.44;;;22.08;80.14
80128;BME280;69440;52.118;5.408;2023-07-29T13:06:27;100843.22;;;22.60;77.08
80128;BME280;69440;52.118;5.408;2023-07-29T13:08:57;100839.47;;;22.61;76.77
80128;BME280;69440;52.118;5.408;2023-07-29T13:11:23;100843.09;;;22.78;74.96
80128;BME280;69440;52.118;5.408;2023-07-29T13:13:50;100837.00;;;23.00;75.09
80128;BME280;69440;52.118;5.408;2023-07-29T13:16:17;100835.94;;;23.17;74.24
80128;BME280;69440;52.118;5.408;2023-07-29T13:18:44;100828.56;;;23.18;74.03
80128;BME280;69440;52.118;5.408;2023-07-29T13:21:11;100836.63;;;23.60;72.88
80128;BME280;69440;52.118;5.408;2023-07-29T13:23:37;100823.09;;;23.34;69.87
80128;BME280;69440;52.118;5.408;2023-07-29T13:26:19;100835.72;;;23.51;70.97
80128;BME280;69440;52.118;5.408;2023-07-29T13:28:59;100820.59;;;23.88;69.85
80128;BME280;69440;52.118;5.408;2023-07-29T13:31:26;100829.72;;;23.72;66.65